Time;durP1;ratioP1;P1;durP2;ratioP2;P2;SDS_P1;SDS_P2;PMS_P1;PMS_P2;Temp;Humidity;BMP_temperature;BMP_pressure;BME280_temperature;BME280_humidity;BME280_pressure;Samples;Min_cycle;Max_cycle;Signal;HPM_P1;HPM_P2
2023/06/30 00:01:32;;;;;;;19.17;16.30;;;;;;;;;;4993965;28;20448;-80
2023/06/30 00:03:59;;;;;;;23.15;19.80;;;;;;;;;;5006733;28;20065;-79
2023/06/30 00:06:25;;;;;;;20.58;18.38;;;;;;;;;;4998091;28;20050;-80
2023/06/30 00:08:51;;;;;;;19.73;17.27;;;;;;;;;;4993813;28;20382;-79
2023/06/30 00:11:17;;;;;;;28.25;17.58;;;;;;;;;;4993324;28;20125;-79
2023/06/30 00:13:43;;;;;;;23.48;18.05;;;;;;;;;;4991866;28;20041;-79
2023/06/30 00:16:09;;;;;;;24.88;18.67;;;;;;;;;;4991793;28;20042;-79
2023/06/30 00:18:35;;;;;;;26.15;18.42;;;;;;;;;;4991912;28;20413;-80
2023/06/30 00:21:02;;;;;;;20.25;16.23;;;;;;;;;;4993047;28;20034;-77
2023/06/30 00:23:28;;;;;;;25.15;18.50;;;;;;;;;;4993476;28;20042;-80
2023/06/30 00:25:54;;;;;;;24.25;17.23;;;;;;;;;;4993721;28;20088;-78
2023/06/30 00:28:20;;;;;;;27.27;19.30;;;;;;;;;;4995645;28;20479;-80
2023/06/30 00:30:46;;;;;;;19.95;16.23;;;;;;;;;;5004202;28;20034;-80
2023/06/30 00:33:13;;;;;;;21.52;18.00;;;;;;;;;;5004889;28;20080;-79
2023/06/30 00:35:40;;;;;;;18.88;16.92;;;;;;;;;;4992988;28;20026;-79
2023/06/30 00:38:06;;;;;;;26.10;18.23;;;;;;;;;;4993617;28;20402;-80
2023/06/30 00:40:32;;;;;;;24.67;19.55;;;;;;;;;;4992599;28;20054;-80
2023/06/30 00:43:00;;;;;;;23.88;18.60;;;;;;;;;;4993311;28;20084;-81
2023/06/30 00:45:27;;;;;;;31.30;22.23;;;;;;;;;;4993013;28;20050;-79
2023/06/30 00:47:53;;;;;;;24.65;21.65;;;;;;;;;;4992560;28;20113;-80
2023/06/30 00:50:19;;;;;;;29.80;21.42;;;;;;;;;;4992205;28;20058;-80
2023/06/30 00:52:47;;;;;;;25.38;20.60;;;;;;;;;;4991529;28;20038;-80
2023/06/30 00:55:13;;;;;;;28.73;21.23;;;;;;;;;;4990845;28;20046;-79
2023/06/30 00:57:39;;;;;;;24.38;20.52;;;;;;;;;;4992568;28;20034;-80
2023/06/30 01:00:10;;;;;;;25.88;18.77;;;;;;;;;;4975147;28;20161;-79
2023/06/30 01:03:01;;;;;;;28.67;21.73;;;;;;;;;;4991460;28;20035;-80
2023/06/30 01:05:40;;;;;;;30.17;20.60;;;;;;;;;;4991162;28;20045;-80
2023/06/30 01:08:15;;;;;;;37.88;20.10;;;;;;;;;;4990933;28;20038;-79
2023/06/30 01:10:41;;;;;;;32.65;21.20;;;;;;;;;;4990870;28;20094;-78
2023/06/30 01:13:07;;;;;;;30.88;21.52;;;;;;;;;;4974339;28;20165;-79
2023/06/30 01:15:33;;;;;;;27.67;19.23;;;;;;;;;;4991058;28;20128;-78
2023/06/30 01:18:00;;;;;;;27.58;20.13;;;;;;;;;;4990466;28;20026;-79
2023/06/30 01:20:34;;;;;;;27.58;20.25;;;;;;;;;;4991967;28;20041;-79
2023/06/30 01:23:02;;;;;;;33.85;22.80;;;;;;;;;;4991633;28;20095;-79
2023/06/30 01:25:28;;;;;;;31.02;21.90;;;;;;;;;;4990730;28;20054;-80
2023/06/30 01:27:54;;;;;;;34.97;22.45;;;;;;;;;;4974549;28;20520;-79
2023/06/30 01:30:21;;;;;;;29.50;21.00;;;;;;;;;;4974462;28;20042;-80
2023/06/30 01:32:50;;;;;;;30.92;20.60;;;;;;;;;;4991831;28;20132;-79
2023/06/30 01:35:16;;;;;;;36.42;23.17;;;;;;;;;;4991710;28;20209;-79
2023/06/30 01:37:42;;;;;;;32.08;25.45;;;;;;;;;;4991657;28;20114;-79
2023/06/30 01:40:09;;;;;;;36.38;23.35;;;;;;;;;;4990321;28;20037;-78
2023/06/30 01:42:35;;;;;;;36.05;24.17;;;;;;;;;;4990401;28;20061;-79
2023/06/30 01:45:02;;;;;;;38.33;24.48;;;;;;;;;;4991438;28;20540;-78
2023/06/30 01:47:31;;;;;;;41.95;24.25;;;;;;;;;;4974817;28;20088;-79
2023/06/30 01:49:57;;;;;;;34.22;23.40;;;;;;;;;;4974690;28;20501;-79
2023/06/30 01:52:23;;;;;;;33.20;23.15;;;;;;;;;;4991829;28;20038;-78
2023/06/30 01:54:50;;;;;;;30.38;22.25;;;;;;;;;;4995869;28;20038;-77
2023/06/30 01:57:16;;;;;;;26.13;19.90;;;;;;;;;;4999880;28;20034;-79
2023/06/30 01:59:42;;;;;;;34.15;23.50;;;;;;;;;;4991783;28;20129;-79
2023/06/30 02:02:08;;;;;;;40.85;25.92;;;;;;;;;;4973805;28;20066;-79
2023/06/30 02:04:34;;;;;;;27.08;20.55;;;;;;;;;;4990193;28;20038;-78
2023/06/30 02:07:00;;;;;;;33.85;22.30;;;;;;;;;;4990709;28;20480;-78
2023/06/30 02:09:26;;;;;;;30.40;21.45;;;;;;;;;;4989920;28;20113;-78
2023/06/30 02:11:52;;;;;;;35.92;26.00;;;;;;;;;;4990437;28;20038;-79
2023/06/30 02:14:18;;;;;;;33.80;24.23;;;;;;;;;;4989580;28;20300;-79
2023/06/30 02:16:44;;;;;;;23.38;18.95;;;;;;;;;;4990046;28;20417;-79
2023/06/30 02:19:10;;;;;;;43.65;27.65;;;;;;;;;;4989633;28;20071;-79
2023/06/30 02:21:36;;;;;;;48.38;28.95;;;;;;;;;;4989926;28;20085;-78
2023/06/30 02:24:02;;;;;;;43.53;26.20;;;;;;;;;;4989756;28;20060;-79
2023/06/30 02:26:28;;;;;;;42.42;25.77;;;;;;;;;;4990931;28;20399;-79
2023/06/30 02:28:58;;;;;;;40.03;28.17;;;;;;;;;;4989802;28;20066;-79
2023/06/30 02:31:25;;;;;;;52.50;32.17;;;;;;;;;;4990939;28;20217;-79
2023/06/30 02:33:54;;;;;;;51.08;31.45;;;;;;;;;;4989685;28;20073;-80
2023/06/30 02:36:20;;;;;;;46.67;26.25;;;;;;;;;;4990697;28;20081;-79
2023/06/30 02:38:47;;;;;;;47.00;28.85;;;;;;;;;;4990861;28;20480;-80
2023/06/30 02:41:14;;;;;;;47.72;28.08;;;;;;;;;;4990445;28;20031;-80
2023/06/30 02:43:42;;;;;;;43.13;27.42;;;;;;;;;;4989520;28;20043;-80
2023/06/30 02:46:09;;;;;;;38.88;27.00;;;;;;;;;;4989263;28;20129;-79
2023/06/30 02:48:35;;;;;;;39.38;25.45;;;;;;;;;;4973751;28;20034;-80
2023/06/30 02:51:02;;;;;;;38.90;25.08;;;;;;;;;;4989353;28;20065;-78
2023/06/30 02:53:28;;;;;;;41.80;28.38;;;;;;;;;;4989333;28;20122;-77
2023/06/30 02:55:54;;;;;;;52.15;28.13;;;;;;;;;;4990818;28;20125;-79
2023/06/30 02:58:22;;;;;;;47.45;26.95;;;;;;;;;;4989275;28;20182;-78
2023/06/30 03:00:49;;;;;;;52.40;30.85;;;;;;;;;;4989534;28;20034;-79
2023/06/30 03:03:16;;;;;;;58.47;31.50;;;;;;;;;;4989179;28;20035;-79
2023/06/30 03:05:43;;;;;;;54.78;31.65;;;;;;;;;;4989584;28;20140;-79
2023/06/30 03:08:10;;;;;;;53.97;31.67;;;;;;;;;;4972913;28;20026;-79
2023/06/30 03:10:36;;;;;;;49.47;29.20;;;;;;;;;;4989505;28;20040;-79
2023/06/30 03:13:03;;;;;;;37.65;24.95;;;;;;;;;;4989287;28;20069;-79
2023/06/30 03:15:29;;;;;;;38.97;23.35;;;;;;;;;;4989275;28;20045;-79
2023/06/30 03:17:55;;;;;;;49.20;23.75;;;;;;;;;;4989855;28;20516;-79
2023/06/30 03:20:22;;;;;;;55.85;29.77;;;;;;;;;;4994115;28;20121;-78
2023/06/30 03:22:49;;;;;;;55.42;31.00;;;;;;;;;;4992958;28;20034;-79
2023/06/30 03:25:15;;;;;;;61.65;35.38;;;;;;;;;;4992660;28;20054;-78
2023/06/30 03:27:42;;;;;;;49.10;28.55;;;;;;;;;;4976814;28;20038;-77
2023/06/30 03:30:08;;;;;;;52.53;28.70;;;;;;;;;;4992932;28;20042;-78
2023/06/30 03:32:42;;;;;;;40.13;27.55;;;;;;;;;;4993338;28;20030;-77
2023/06/30 03:35:09;;;;;;;43.30;29.10;;;;;;;;;;4993191;28;20037;-80
2023/06/30 03:37:35;;;;;;;42.38;28.40;;;;;;;;;;4998218;28;20045;-79
2023/06/30 03:40:04;;;;;;;40.08;25.58;;;;;;;;;;5008174;28;20513;-79
2023/06/30 03:42:31;;;;;;;49.22;29.27;;;;;;;;;;5006996;28;20066;-79
2023/06/30 03:44:56;;;;;;;43.30;27.88;;;;;;;;;;4994083;28;20076;-79
2023/06/30 03:47:23;;;;;;;40.90;27.73;;;;;;;;;;5005058;28;20075;-79
2023/06/30 03:49:49;;;;;;;34.63;24.13;;;;;;;;;;5003538;28;20120;-80
2023/06/30 03:52:15;;;;;;;33.95;23.23;;;;;;;;;;4994237;28;20042;-78
2023/06/30 03:54:42;;;;;;;35.13;23.75;;;;;;;;;;4992382;28;20121;-78
2023/06/30 03:57:08;;;;;;;31.25;25.20;;;;;;;;;;4992238;28;20038;-79
2023/06/30 03:59:34;;;;;;;21.60;18.13;;;;;;;;;;4991989;28;20473;-80
2023/06/30 04:02:00;;;;;;;31.88;26.00;;;;;;;;;;4993621;28;20034;-78
2023/06/30 04:04:26;;;;;;;30.15;23.58;;;;;;;;;;4993095;28;20045;-78
2023/06/30 04:06:52;;;;;;;29.20;20.33;;;;;;;;;;4993450;28;20510;-78
2023/06/30 04:09:18;;;;;;;28.15;20.13;;;;;;;;;;4992887;28;20134;-78
2023/06/30 04:11:44;;;;;;;21.63;18.02;;;;;;;;;;4975871;28;20142;-79
2023/06/30 04:14:10;;;;;;;18.35;16.45;;;;;;;;;;4992996;28;20195;-79
2023/06/30 04:16:36;;;;;;;20.35;18.33;;;;;;;;;;4993297;28;20038;-79
2023/06/30 04:19:02;;;;;;;19.92;18.23;;;;;;;;;;4993092;28;20108;-79
2023/06/30 04:21:28;;;;;;;19.75;17.75;;;;;;;;;;4992746;28;20046;-78
2023/06/30 04:23:54;;;;;;;21.90;17.95;;;;;;;;;;4975681;28;20544;-78
2023/06/30 04:26:21;;;;;;;19.67;17.77;;;;;;;;;;4992517;28;20133;-78
2023/06/30 04:28:47;;;;;;;22.67;18.00;;;;;;;;;;4992632;28;20030;-78
2023/06/30 04:31:13;;;;;;;21.52;18.48;;;;;;;;;;4991965;28;20042;-78
2023/06/30 04:33:39;;;;;;;19.60;15.98;;;;;;;;;;4992614;28;20117;-78
2023/06/30 04:36:06;;;;;;;19.75;17.27;;;;;;;;;;4991510;28;20505;-78
2023/06/30 04:38:35;;;;;;;17.25;14.65;;;;;;;;;;4992322;28;20104;-78
2023/06/30 04:41:01;;;;;;;21.00;15.95;;;;;;;;;;4992373;28;20026;-78
2023/06/30 04:43:27;;;;;;;18.92;17.05;;;;;;;;;;4991070;28;20046;-76
2023/06/30 04:45:53;;;;;;;19.67;14.75;;;;;;;;;;4992565;28;20104;-76
2023/06/30 04:48:19;;;;;;;18.25;16.27;;;;;;;;;;4992271;28;20038;-78
2023/06/30 04:50:45;;;;;;;19.13;16.85;;;;;;;;;;4992188;28;20061;-77
2023/06/30 04:53:11;;;;;;;24.42;16.77;;;;;;;;;;4991100;28;20058;-78
2023/06/30 04:55:38;;;;;;;24.15;17.70;;;;;;;;;;4992250;28;20042;-77
2023/06/30 04:58:04;;;;;;;19.27;17.13;;;;;;;;;;4992247;28;20173;-78
2023/06/30 05:00:30;;;;;;;18.83;16.92;;;;;;;;;;4992041;28;20030;-78
2023/06/30 05:02:56;;;;;;;21.63;18.58;;;;;;;;;;4974429;28;20465;-77
2023/06/30 05:05:22;;;;;;;22.08;17.95;;;;;;;;;;4991859;28;20125;-76
2023/06/30 05:07:48;;;;;;;22.02;18.15;;;;;;;;;;4990759;28;20035;-77
2023/06/30 05:10:14;;;;;;;21.30;18.75;;;;;;;;;;4974201;28;20038;-78
2023/06/30 05:12:40;;;;;;;25.08;21.52;;;;;;;;;;4992253;28;20042;-78
2023/06/30 05:15:07;;;;;;;25.70;22.05;;;;;;;;;;4992114;28;20031;-78
2023/06/30 05:17:33;;;;;;;26.50;20.30;;;;;;;;;;4974602;28;20417;-76
2023/06/30 05:20:04;;;;;;;27.52;19.52;;;;;;;;;;4990811;28;20034;-77
2023/06/30 05:22:30;;;;;;;21.92;18.60;;;;;;;;;;4991660;28;20046;-78
2023/06/30 05:24:56;;;;;;;24.83;19.63;;;;;;;;;;4991675;28;20042;-76
2023/06/30 05:27:22;;;;;;;20.40;18.30;;;;;;;;;;4991628;28;20129;-77
2023/06/30 05:29:48;;;;;;;20.55;16.95;;;;;;;;;;4991832;28;20114;-78
2023/06/30 05:32:14;;;;;;;17.42;15.40;;;;;;;;;;4990849;28;20041;-77
2023/06/30 05:34:41;;;;;;;18.73;15.68;;;;;;;;;;4991830;28;20089;-78
2023/06/30 05:37:07;;;;;;;19.70;17.60;;;;;;;;;;4974751;28;20050;-78
2023/06/30 05:39:33;;;;;;;24.40;17.05;;;;;;;;;;5002534;28;20033;-78
2023/06/30 05:41:59;;;;;;;18.63;16.75;;;;;;;;;;4992786;28;20038;-78
2023/06/30 05:44:25;;;;;;;18.77;16.75;;;;;;;;;;4991282;28;20117;-78
2023/06/30 05:46:51;;;;;;;19.08;16.90;;;;;;;;;;4990493;28;20164;-78
2023/06/30 05:49:17;;;;;;;28.15;16.38;;;;;;;;;;4991460;28;20042;-78
2023/06/30 05:51:43;;;;;;;23.38;16.80;;;;;;;;;;4990239;28;20061;-77
2023/06/30 05:54:10;;;;;;;23.35;18.17;;;;;;;;;;4991226;28;20041;-78
2023/06/30 05:56:36;;;;;;;18.70;16.60;;;;;;;;;;4991284;28;20405;-78
2023/06/30 05:59:02;;;;;;;19.60;16.88;;;;;;;;;;4989917;28;20034;-76
2023/06/30 06:01:29;;;;;;;27.77;16.48;;;;;;;;;;4973859;28;20061;-77
2023/06/30 06:03:55;;;;;;;21.38;17.05;;;;;;;;;;4989887;28;20116;-78
2023/06/30 06:06:21;;;;;;;24.77;19.17;;;;;;;;;;4973674;28;20433;-78
2023/06/30 06:08:48;;;;;;;20.27;15.70;;;;;;;;;;4990014;28;20030;-78
2023/06/30 06:11:14;;;;;;;21.45;17.10;;;;;;;;;;4991303;28;20065;-78
2023/06/30 06:13:40;;;;;;;22.73;19.23;;;;;;;;;;4990520;28;20038;-78
2023/06/30 06:16:06;;;;;;;22.17;16.80;;;;;;;;;;4990081;28;20045;-78
2023/06/30 06:18:32;;;;;;;24.75;18.40;;;;;;;;;;4991103;28;20042;-77
2023/06/30 06:20:58;;;;;;;31.10;20.65;;;;;;;;;;4991208;28;20398;-78
2023/06/30 06:23:24;;;;;;;30.67;20.10;;;;;;;;;;4990864;28;20121;-77
2023/06/30 06:25:50;;;;;;;29.38;18.65;;;;;;;;;;4990067;28;20042;-77
2023/06/30 06:28:16;;;;;;;21.73;18.25;;;;;;;;;;4993507;28;20046;-78
2023/06/30 06:30:43;;;;;;;22.63;17.25;;;;;;;;;;4995314;28;20065;-77
2023/06/30 06:33:09;;;;;;;19.88;17.90;;;;;;;;;;4979726;28;20129;-77
2023/06/30 06:35:35;;;;;;;21.25;16.55;;;;;;;;;;4994304;28;20049;-76
2023/06/30 06:38:01;;;;;;;19.83;16.92;;;;;;;;;;4978848;28;20034;-77
2023/06/30 06:40:31;;;;;;;18.00;16.13;;;;;;;;;;4996349;28;20121;-79
2023/06/30 06:42:57;;;;;;;17.38;15.60;;;;;;;;;;4996300;28;20103;-77
2023/06/30 06:45:27;;;;;;;18.15;15.60;;;;;;;;;;4999501;28;20051;-77
2023/06/30 06:48:13;;;;;;;24.65;15.82;;;;;;;;;;5004036;28;20044;-77
2023/06/30 06:50:39;;;;;;;16.15;14.80;;;;;;;;;;4999428;28;20050;-76
2023/06/30 06:53:05;;;;;;;17.88;16.05;;;;;;;;;;5002333;28;20041;-77
2023/06/30 06:55:31;;;;;;;22.40;15.70;;;;;;;;;;5003760;28;20031;-76
2023/06/30 06:57:57;;;;;;;22.70;17.60;;;;;;;;;;5000974;28;20034;-79
2023/06/30 07:00:23;;;;;;;19.92;16.40;;;;;;;;;;4999042;28;20037;-78
2023/06/30 07:02:50;;;;;;;19.60;16.08;;;;;;;;;;4996511;28;20047;-77
2023/06/30 07:05:16;;;;;;;17.88;16.00;;;;;;;;;;4995621;28;20097;-78
2023/06/30 07:07:42;;;;;;;19.13;17.33;;;;;;;;;;4994966;28;20128;-76
2023/06/30 07:10:08;;;;;;;20.23;18.20;;;;;;;;;;4993805;28;20549;-79
2023/06/30 07:12:34;;;;;;;19.50;16.35;;;;;;;;;;4993619;28;20046;-79
2023/06/30 07:15:00;;;;;;;22.38;17.40;;;;;;;;;;4994721;28;20105;-78
2023/06/30 07:17:26;;;;;;;19.23;17.40;;;;;;;;;;4994884;28;20042;-77
2023/06/30 07:19:52;;;;;;;17.60;15.93;;;;;;;;;;4994454;28;20034;-78
2023/06/30 07:22:18;;;;;;;16.80;15.18;;;;;;;;;;4994517;28;20038;-78
2023/06/30 07:24:44;;;;;;;20.02;16.15;;;;;;;;;;4994160;28;20125;-77
2023/06/30 07:27:10;;;;;;;19.33;15.10;;;;;;;;;;4995646;28;20042;-78
2023/06/30 07:29:36;;;;;;;17.83;16.02;;;;;;;;;;4998154;28;20054;-75
2023/06/30 07:32:02;;;;;;;17.50;15.90;;;;;;;;;;5001847;28;20046;-78
2023/06/30 07:34:30;;;;;;;19.95;16.13;;;;;;;;;;4994030;28;20038;-80
2023/06/30 07:36:56;;;;;;;16.63;15.00;;;;;;;;;;4995054;28;20042;-78
2023/06/30 07:39:22;;;;;;;17.45;13.77;;;;;;;;;;4992742;28;20394;-78
2023/06/30 07:41:48;;;;;;;16.73;13.48;;;;;;;;;;4992849;28;20038;-79
2023/06/30 07:44:13;;;;;;;15.00;13.75;;;;;;;;;;4993885;28;20034;-77
2023/06/30 07:46:40;;;;;;;14.73;13.52;;;;;;;;;;4993726;28;20054;-78
2023/06/30 07:49:06;;;;;;;17.65;13.05;;;;;;;;;;4992470;28;20042;-78
2023/06/30 07:51:32;;;;;;;13.93;12.52;;;;;;;;;;4975958;28;20473;-80
2023/06/30 07:53:58;;;;;;;9.85;8.85;;;;;;;;;;4993496;28;20038;-77
2023/06/30 07:56:24;;;;;;;9.65;8.82;;;;;;;;;;4976351;28;20085;-78
2023/06/30 07:58:50;;;;;;;9.55;8.63;;;;;;;;;;4993808;28;20038;-78
2023/06/30 08:01:16;;;;;;;11.68;10.52;;;;;;;;;;4994005;28;20038;-78
2023/06/30 08:03:42;;;;;;;10.68;9.45;;;;;;;;;;4993446;28;20097;-78
2023/06/30 08:06:08;;;;;;;10.90;9.90;;;;;;;;;;4992496;28;20420;-79
2023/06/30 08:08:34;;;;;;;8.80;8.18;;;;;;;;;;4992017;28;20121;-77
2023/06/30 08:11:00;;;;;;;7.95;7.18;;;;;;;;;;4994208;28;20113;-78
2023/06/30 08:13:26;;;;;;;8.13;7.43;;;;;;;;;;4996399;28;20042;-78
2023/06/30 08:15:52;;;;;;;7.25;6.75;;;;;;;;;;4999316;28;20599;-78
2023/06/30 08:18:18;;;;;;;9.13;7.57;;;;;;;;;;4999590;28;20034;-78
2023/06/30 08:20:44;;;;;;;8.98;8.07;;;;;;;;;;4984003;28;20077;-77
2023/06/30 08:23:12;;;;;;;8.82;7.55;;;;;;;;;;5001454;28;20049;-77
2023/06/30 08:25:38;;;;;;;7.47;6.85;;;;;;;;;;5001077;28;20073;-78
2023/06/30 08:28:03;;;;;;;10.00;7.95;;;;;;;;;;5001535;28;20034;-76
2023/06/30 08:30:29;;;;;;;7.90;7.40;;;;;;;;;;5002278;28;20038;-77
2023/06/30 08:32:55;;;;;;;11.13;8.00;;;;;;;;;;5002129;28;20089;-77
2023/06/30 08:35:21;;;;;;;7.72;7.03;;;;;;;;;;5002058;28;20034;-78
2023/06/30 08:37:47;;;;;;;9.77;7.57;;;;;;;;;;5001742;28;20108;-76
2023/06/30 08:40:13;;;;;;;8.25;7.55;;;;;;;;;;5000366;28;20046;-79
2023/06/30 08:42:40;;;;;;;7.97;7.38;;;;;;;;;;5001467;28;20046;-77
2023/06/30 08:45:06;;;;;;;8.20;7.50;;;;;;;;;;4997141;28;20125;-79
2023/06/30 08:47:34;;;;;;;8.48;7.78;;;;;;;;;;4996261;28;20048;-77
2023/06/30 08:50:00;;;;;;;8.40;7.78;;;;;;;;;;4994172;28;20050;-77
2023/06/30 08:52:26;;;;;;;7.57;6.63;;;;;;;;;;4997700;28;20077;-84
2023/06/30 08:54:52;;;;;;;12.23;11.32;;;;;;;;;;5005344;28;20131;-84
2023/06/30 08:57:19;;;;;;;13.07;12.05;;;;;;;;;;4999060;28;20096;-84
2023/06/30 08:59:45;;;;;;;12.10;9.32;;;;;;;;;;4994467;28;20038;-83
2023/06/30 09:02:11;;;;;;;10.07;9.18;;;;;;;;;;4996433;28;20038;-84
2023/06/30 09:04:37;;;;;;;9.50;8.88;;;;;;;;;;4996956;28;20045;-82
2023/06/30 09:07:06;;;;;;;13.07;11.90;;;;;;;;;;4980783;28;20084;-81
2023/06/30 09:09:35;;;;;;;13.38;12.38;;;;;;;;;;4997273;28;20026;-81
2023/06/30 09:12:01;;;;;;;16.37;14.83;;;;;;;;;;4997042;28;20042;-81
2023/06/30 09:14:28;;;;;;;13.48;12.38;;;;;;;;;;4993333;28;20038;-80
2023/06/30 09:16:54;;;;;;;12.95;12.05;;;;;;;;;;4992248;28;20092;-80
2023/06/30 09:19:20;;;;;;;12.85;12.05;;;;;;;;;;4975841;28;20097;-82
2023/06/30 09:21:46;;;;;;;12.60;11.80;;;;;;;;;;4999031;28;20026;-82
2023/06/30 09:24:12;;;;;;;12.68;11.73;;;;;;;;;;4992635;28;20042;-80
2023/06/30 09:26:38;;;;;;;14.13;12.75;;;;;;;;;;4992037;28;20421;-80
2023/06/30 09:29:07;;;;;;;12.77;11.88;;;;;;;;;;4990785;28;20044;-80
2023/06/30 09:31:33;;;;;;;13.45;12.32;;;;;;;;;;4992232;28;20065;-80
2023/06/30 09:34:12;;;;;;;13.50;12.52;;;;;;;;;;4992048;28;20033;-80
2023/06/30 09:36:48;;;;;;;13.95;12.82;;;;;;;;;;4990860;28;20516;-79
2023/06/30 09:39:14;;;;;;;12.75;11.85;;;;;;;;;;4976228;28;20045;-80
2023/06/30 09:41:43;;;;;;;12.00;11.20;;;;;;;;;;4993086;28;20026;-79
2023/06/30 09:44:13;;;;;;;11.75;10.95;;;;;;;;;;4992832;28;20045;-78
2023/06/30 09:47:05;;;;;;;11.23;10.43;;;;;;;;;;5003872;28;20049;-79
2023/06/30 09:49:32;;;;;;;10.52;9.70;;;;;;;;;;5000040;28;20076;-79
2023/06/30 09:52:01;;;;;;;9.73;9.13;;;;;;;;;;4991208;28;20065;-80
2023/06/30 09:54:28;;;;;;;9.88;9.18;;;;;;;;;;4991564;28;20034;-79
2023/06/30 09:56:58;;;;;;;9.93;9.23;;;;;;;;;;4990166;28;20593;-80
2023/06/30 09:59:25;;;;;;;10.57;9.68;;;;;;;;;;4990236;28;20473;-79
2023/06/30 10:01:57;;;;;;;8.65;8.10;;;;;;;;;;4991164;28;20201;-80
2023/06/30 10:04:24;;;;;;;9.80;9.10;;;;;;;;;;4991051;28;20038;-79
2023/06/30 10:06:51;;;;;;;10.50;9.40;;;;;;;;;;4989858;28;20049;-79
2023/06/30 10:09:16;;;;;;;8.02;7.43;;;;;;;;;;4989937;28;20046;-79
2023/06/30 10:11:43;;;;;;;8.98;7.78;;;;;;;;;;4991028;28;20034;-78
2023/06/30 10:14:09;;;;;;;7.80;7.30;;;;;;;;;;4991005;28;20104;-79
2023/06/30 10:16:35;;;;;;;5.90;5.43;;;;;;;;;;4989887;28;20117;-79
2023/06/30 10:19:02;;;;;;;6.93;6.22;;;;;;;;;;4990972;28;20045;-77
2023/06/30 10:21:28;;;;;;;7.13;6.50;;;;;;;;;;4991390;28;20041;-78
2023/06/30 10:23:54;;;;;;;6.80;6.20;;;;;;;;;;4990765;28;20054;-79
2023/06/30 10:26:20;;;;;;;6.60;5.20;;;;;;;;;;4989667;28;20046;-78
2023/06/30 10:28:46;;;;;;;4.85;4.47;;;;;;;;;;4990271;28;20034;-77
2023/06/30 10:31:12;;;;;;;3.75;3.42;;;;;;;;;;4989575;28;20085;-77
2023/06/30 10:33:38;;;;;;;4.13;3.80;;;;;;;;;;4989377;28;20129;-76
2023/06/30 10:36:04;;;;;;;4.20;3.80;;;;;;;;;;4990646;28;20125;-75
2023/06/30 10:38:30;;;;;;;4.20;4.00;;;;;;;;;;4990840;28;20100;-76
2023/06/30 10:41:12;;;;;;;3.50;3.30;;;;;;;;;;4990391;28;20045;-76
2023/06/30 10:43:57;;;;;;;4.28;4.00;;;;;;;;;;4990518;28;20069;-75
2023/06/30 10:46:23;;;;;;;4.22;3.97;;;;;;;;;;4990581;28;20042;-76
2023/06/30 10:48:52;;;;;;;4.10;3.90;;;;;;;;;;4989141;28;20093;-75
2023/06/30 10:51:18;;;;;;;4.75;4.45;;;;;;;;;;4972979;28;20058;-76
2023/06/30 10:53:44;;;;;;;5.55;5.25;;;;;;;;;;4990422;28;20042;-75
2023/06/30 10:56:10;;;;;;;5.80;5.30;;;;;;;;;;4990590;28;20451;-77
2023/06/30 10:58:39;;;;;;;4.85;4.55;;;;;;;;;;4989189;28;20687;-76
2023/06/30 11:01:06;;;;;;;5.40;5.10;;;;;;;;;;4990473;28;20052;-75
2023/06/30 11:03:51;;;;;;;6.05;5.65;;;;;;;;;;4990412;28;20343;-75
2023/06/30 11:06:19;;;;;;;5.45;5.15;;;;;;;;;;4990224;28;20050;-76
2023/06/30 11:08:58;;;;;;;5.10;4.80;;;;;;;;;;4992222;28;20061;-75
2023/06/30 11:11:24;;;;;;;4.70;4.40;;;;;;;;;;4995102;28;20041;-75
2023/06/30 11:13:50;;;;;;;4.63;4.43;;;;;;;;;;4990419;28;20034;-75
2023/06/30 11:16:16;;;;;;;4.63;4.43;;;;;;;;;;4989055;28;20049;-76
2023/06/30 11:18:44;;;;;;;3.03;2.92;;;;;;;;;;4988967;28;20039;-76
2023/06/30 11:21:10;;;;;;;3.53;3.33;;;;;;;;;;4988834;28;20045;-77
2023/06/30 11:23:39;;;;;;;3.60;3.30;;;;;;;;;;4990440;28;20034;-77
2023/06/30 11:26:11;;;;;;;3.45;3.25;;;;;;;;;;4990002;28;20056;-76
2023/06/30 11:28:37;;;;;;;3.47;3.30;;;;;;;;;;4990041;28;20413;-77
2023/06/30 11:31:03;;;;;;;3.97;3.78;;;;;;;;;;4990131;28;20038;-77
2023/06/30 11:33:29;;;;;;;4.53;4.22;;;;;;;;;;4988965;28;20362;-77
2023/06/30 11:35:59;;;;;;;5.30;5.00;;;;;;;;;;4972664;28;20438;-77
2023/06/30 11:38:25;;;;;;;4.57;4.28;;;;;;;;;;4990151;28;20041;-76
2023/06/30 11:40:51;;;;;;;5.35;4.85;;;;;;;;;;4991881;28;20070;-76
2023/06/30 11:43:21;;;;;;;3.97;3.75;;;;;;;;;;4993708;28;20412;-77
2023/06/30 11:45:58;;;;;;;4.40;4.10;;;;;;;;;;4991892;28;20053;-76
2023/06/30 11:48:23;;;;;;;4.32;4.13;;;;;;;;;;4976355;28;20426;-74
2023/06/30 11:50:50;;;;;;;3.88;3.67;;;;;;;;;;4993147;28;20065;-77
2023/06/30 11:53:16;;;;;;;4.18;3.85;;;;;;;;;;4993441;28;20026;-77
2023/06/30 11:55:43;;;;;;;4.20;4.00;;;;;;;;;;4993182;28;20074;-77
2023/06/30 11:58:09;;;;;;;4.57;4.28;;;;;;;;;;4992262;28;20461;-77
2023/06/30 12:00:35;;;;;;;6.28;5.88;;;;;;;;;;4992051;28;20046;-78
2023/06/30 12:03:04;;;;;;;7.35;6.68;;;;;;;;;;4993295;28;20494;-79
2023/06/30 12:05:30;;;;;;;6.32;5.93;;;;;;;;;;4991968;28;20050;-77
2023/06/30 12:07:57;;;;;;;5.72;5.43;;;;;;;;;;4993073;28;20038;-77
2023/06/30 12:10:36;;;;;;;6.47;5.93;;;;;;;;;;4993170;28;20046;-77
2023/06/30 12:13:03;;;;;;;6.35;5.95;;;;;;;;;;4992952;28;20034;-77
2023/06/30 12:15:29;;;;;;;10.93;8.85;;;;;;;;;;4991861;28;20108;-77
2023/06/30 12:17:55;;;;;;;11.23;8.30;;;;;;;;;;4992894;28;20042;-77
2023/06/30 12:20:22;;;;;;;7.85;7.05;;;;;;;;;;4992990;28;20038;-77
2023/06/30 12:22:50;;;;;;;8.90;7.75;;;;;;;;;;4993440;28;20198;-77
2023/06/30 12:25:18;;;;;;;7.43;6.72;;;;;;;;;;4993105;28;20074;-75
2023/06/30 12:27:48;;;;;;;8.38;7.05;;;;;;;;;;4991598;28;20034;-77
2023/06/30 12:30:15;;;;;;;8.18;6.43;;;;;;;;;;4992990;28;20041;-77
2023/06/30 12:32:42;;;;;;;17.10;13.23;;;;;;;;;;4991563;28;20161;-79
2023/06/30 12:35:08;;;;;;;5.53;5.00;;;;;;;;;;4992569;28;20065;-77
2023/06/30 12:37:34;;;;;;;6.00;5.55;;;;;;;;;;4992436;28;20049;-78
2023/06/30 12:40:00;;;;;;;7.45;6.88;;;;;;;;;;4993038;28;20026;-78
2023/06/30 12:42:32;;;;;;;9.88;6.47;;;;;;;;;;4993779;28;20038;-78
2023/06/30 12:44:57;;;;;;;12.95;6.32;;;;;;;;;;5001162;28;20038;-78
2023/06/30 12:47:23;;;;;;;6.78;6.10;;;;;;;;;;5004780;28;20049;-78
2023/06/30 12:49:50;;;;;;;7.50;6.90;;;;;;;;;;4997221;28;20412;-77
2023/06/30 12:52:16;;;;;;;9.38;7.32;;;;;;;;;;4992088;28;20534;-78
2023/06/30 12:54:42;;;;;;;8.18;7.38;;;;;;;;;;4991158;28;20058;-76
2023/06/30 12:57:08;;;;;;;9.27;8.27;;;;;;;;;;4992672;28;20050;-78
2023/06/30 12:59:34;;;;;;;10.73;8.48;;;;;;;;;;5000762;28;20031;-78
2023/06/30 13:02:00;;;;;;;15.07;8.25;;;;;;;;;;4992470;28;20144;-77
2023/06/30 13:04:27;;;;;;;16.13;9.27;;;;;;;;;;4990890;28;20045;-77
2023/06/30 13:06:53;;;;;;;13.00;8.63;;;;;;;;;;4991890;28;20643;-78
2023/06/30 13:09:19;;;;;;;9.27;8.05;;;;;;;;;;4992144;28;20026;-77
2023/06/30 13:11:45;;;;;;;3.75;3.55;;;;;;;;;;4991694;28;20050;-77
2023/06/30 13:14:12;;;;;;;5.03;4.65;;;;;;;;;;4992190;28;20034;-78
2023/06/30 13:16:38;;;;;;;5.55;5.15;;;;;;;;;;4974431;28;20045;-77
2023/06/30 13:19:04;;;;;;;6.18;5.68;;;;;;;;;;4991961;28;20410;-75
2023/06/30 13:21:30;;;;;;;6.68;5.20;;;;;;;;;;4991934;28;20039;-77
2023/06/30 13:23:56;;;;;;;5.50;4.60;;;;;;;;;;4974642;28;20046;-80
2023/06/30 13:26:22;;;;;;;3.60;3.40;;;;;;;;;;4993800;28;20082;-80
2023/06/30 13:28:48;;;;;;;7.13;6.45;;;;;;;;;;4994099;28;20355;-87
2023/06/30 13:31:14;;;;;;;4.95;4.50;;;;;;;;;;5013358;28;20352;-87
2023/06/30 13:33:39;;;;;;;6.05;5.55;;;;;;;;;;5003024;28;20125;-82
2023/06/30 13:36:08;;;;;;;7.03;6.53;;;;;;;;;;4992585;28;20081;-82
2023/06/30 13:38:34;;;;;;;8.95;7.63;;;;;;;;;;4994073;28;20045;-82
2023/06/30 13:41:00;;;;;;;13.10;7.78;;;;;;;;;;4994897;28;20030;-83
2023/06/30 13:43:28;;;;;;;9.10;8.27;;;;;;;;;;4995846;28;20034;-82
2023/06/30 13:45:54;;;;;;;10.18;9.48;;;;;;;;;;4995047;28;20053;-82
2023/06/30 13:48:20;;;;;;;9.82;9.02;;;;;;;;;;4996149;28;20057;-82
2023/06/30 13:50:46;;;;;;;8.98;8.30;;;;;;;;;;5002859;28;20046;-83
2023/06/30 13:53:12;;;;;;;10.70;9.15;;;;;;;;;;5010102;28;20034;-83
2023/06/30 13:55:38;;;;;;;9.52;8.68;;;;;;;;;;4984763;28;20042;-83
2023/06/30 13:58:05;;;;;;;11.60;7.38;;;;;;;;;;5007761;28;20030;-82
2023/06/30 14:00:30;;;;;;;7.50;6.90;;;;;;;;;;5003284;28;20040;-84
2023/06/30 14:02:56;;;;;;;7.53;7.03;;;;;;;;;;4998823;28;20491;-82
2023/06/30 14:05:22;;;;;;;6.07;5.68;;;;;;;;;;4996736;28;20121;-83
2023/06/30 14:07:48;;;;;;;6.45;6.07;;;;;;;;;;4991879;28;20048;-83
2023/06/30 14:10:14;;;;;;;6.90;6.40;;;;;;;;;;4992736;28;20023;-80
2023/06/30 14:12:41;;;;;;;6.70;6.10;;;;;;;;;;4991589;28;20069;-81
2023/06/30 14:15:07;;;;;;;6.82;6.40;;;;;;;;;;4989828;28;20081;-79
2023/06/30 14:17:33;;;;;;;7.28;6.78;;;;;;;;;;4991064;28;20121;-80
2023/06/30 14:19:59;;;;;;;8.15;6.55;;;;;;;;;;4990792;28;20502;-80
2023/06/30 14:22:25;;;;;;;6.97;6.47;;;;;;;;;;4990886;28;20042;-79
2023/06/30 14:24:51;;;;;;;7.40;6.93;;;;;;;;;;4990657;28;20040;-79